createdAt,value
2017-05-22T00:00:16.641Z,19.10
2017-05-22T00:00:41.852Z,19.08
2017-05-22T00:01:08.678Z,19.01
2017-05-22T00:01:35.459Z,18.96
2017-05-22T00:02:00.690Z,18.92
2017-05-22T00:02:56.784Z,19.01
2017-05-22T00:03:23.488Z,18.96
2017-05-22T00:03:52.984Z,18.98
2017-05-22T00:04:15.086Z,18.93
2017-05-22T00:04:40.127Z,18.93
2017-05-22T00:05:02.649Z,18.92
2017-05-22T00:06:09.538Z,18.84
2017-05-22T00:06:39.275Z,18.79
2017-05-22T00:07:01.167Z,18.80
2017-05-22T00:07:27.719Z,18.88
2017-05-22T00:08:16.435Z,18.87
2017-05-22T00:08:38.329Z,18.88
2017-05-22T00:10:07.958Z,18.77
2017-05-22T00:11:51.295Z,18.77
2017-05-22T00:12:13.657Z,18.80
2017-05-22T00:13:18.076Z,18.87
2017-05-22T00:13:39.789Z,18.88
2017-05-22T00:14:01.521Z,18.82
2017-05-22T00:14:28.041Z,18.76
2017-05-22T00:14:52.834Z,18.71
2017-05-22T00:15:14.809Z,18.68
2017-05-22T00:15:36.642Z,18.71
2017-05-22T00:16:05.888Z,18.76
2017-05-22T00:16:57.592Z,18.75
2017-05-22T00:17:19.588Z,18.70
2017-05-22T00:17:47.234Z,18.66
2017-05-22T00:18:09.369Z,18.61
2017-05-22T00:18:36.288Z,18.60
2017-05-22T00:19:36.908Z,18.68
2017-05-22T00:20:54.653Z,18.76
2017-05-22T00:21:19.093Z,18.74
2017-05-22T00:22:20.056Z,18.69
2017-05-22T00:22:41.891Z,18.72
2017-05-22T00:23:03.654Z,18.64
2017-05-22T00:23:25.432Z,18.67
2017-05-22T00:23:50.198Z,18.71
2017-05-22T00:25:47.565Z,18.80
2017-05-22T00:26:21.805Z,18.72
2017-05-22T00:26:43.546Z,18.71
2017-05-22T00:27:15.507Z,18.73
2017-05-22T00:27:37.709Z,18.69
2017-05-22T00:27:59.485Z,18.69
2017-05-22T00:28:21.525Z,18.71
2017-05-22T00:29:13.504Z,18.75
2017-05-22T00:30:13.093Z,18.69
2017-05-22T00:30:34.842Z,18.70
2017-05-22T00:30:57.191Z,18.75
2017-05-22T00:31:26.935Z,18.78
2017-05-22T00:32:23.086Z,18.72
2017-05-22T00:32:44.867Z,18.76
2017-05-22T00:33:09.473Z,18.73
2017-05-22T00:34:12.751Z,18.71
2017-05-22T00:35:01.376Z,18.68
2017-05-22T00:35:54.404Z,18.69
2017-05-22T00:36:20.982Z,18.63
2017-05-22T00:37:22.377Z,18.58
2017-05-22T00:38:19.099Z,18.57
2017-05-22T00:38:48.439Z,18.62
2017-05-22T00:39:15.266Z,18.57
2017-05-22T00:39:37.773Z,18.54
2017-05-22T00:40:02.809Z,18.52
2017-05-22T00:40:59.065Z,18.47
2017-05-22T00:41:28.693Z,18.43
2017-05-22T00:41:53.003Z,18.47
2017-05-22T00:42:46.204Z,18.52
2017-05-22T00:43:46.527Z,18.49
2017-05-22T00:44:13.931Z,18.54
2017-05-22T00:45:14.246Z,18.43
2017-05-22T00:46:15.005Z,18.41
2017-05-22T00:46:49.074Z,18.48
2017-05-22T00:47:15.612Z,18.50
2017-05-22T00:47:37.371Z,18.51
2017-05-22T00:47:59.434Z,18.51
2017-05-22T00:48:24.258Z,18.48
2017-05-22T00:48:50.932Z,18.43
2017-05-22T00:49:12.937Z,18.48
2017-05-22T00:50:46.177Z,18.47
2017-05-22T00:51:07.994Z,18.49
2017-05-22T00:51:29.762Z,18.50
2017-05-22T00:51:51.705Z,18.53
2017-05-22T00:52:45.630Z,18.47
2017-05-22T00:53:55.826Z,18.49
2017-05-22T00:55:35.044Z,18.44
2017-05-22T00:55:56.873Z,18.43
2017-05-22T00:56:18.595Z,18.44
2017-05-22T00:56:47.769Z,18.43
2017-05-22T00:57:10.099Z,18.37
2017-05-22T00:57:36.769Z,18.37
2017-05-22T00:58:25.398Z,18.40
2017-05-22T00:59:21.118Z,18.43
2017-05-22T00:59:50.957Z,18.41
2017-05-22T01:00:49.432Z,18.44
2017-05-22T01:01:16.821Z,18.44
2017-05-22T01:02:24.168Z,18.40
2017-05-22T01:02:45.937Z,18.41
2017-05-22T01:03:07.723Z,18.41
2017-05-22T01:03:29.765Z,18.41
2017-05-22T01:03:57.439Z,18.41
2017-05-22T01:04:19.323Z,18.34
2017-05-22T01:05:12.612Z,18.28
2017-05-22T01:05:34.454Z,18.29
2017-05-22T01:06:01.004Z,18.33
2017-05-22T01:06:22.759Z,18.31
2017-05-22T01:06:44.557Z,18.37
2017-05-22T01:07:11.179Z,18.32
2017-05-22T01:07:33.160Z,18.28
2017-05-22T01:07:59.783Z,18.34
2017-05-22T01:08:28.920Z,18.37
2017-05-22T01:08:50.961Z,18.39
2017-05-22T01:09:12.735Z,18.40
2017-05-22T01:09:39.703Z,18.36
2017-05-22T01:11:09.809Z,18.36
2017-05-22T01:11:32.573Z,18.31
2017-05-22T01:12:01.948Z,18.32
2017-05-22T01:12:28.658Z,18.28
2017-05-22T01:12:50.639Z,18.29
2017-05-22T01:13:17.233Z,18.26
2017-05-22T01:13:40.217Z,18.29
2017-05-22T01:14:04.586Z,18.35
2017-05-22T01:14:54.964Z,18.27
2017-05-22T01:15:57.493Z,18.31
2017-05-22T01:16:19.221Z,18.28
2017-05-22T01:17:15.462Z,18.25
2017-05-22T01:17:48.842Z,18.18
2017-05-22T01:18:19.944Z,18.18
2017-05-22T01:18:41.669Z,18.21
2017-05-22T01:19:03.410Z,18.23
2017-05-22T01:19:25.139Z,18.28
2017-05-22T01:22:24.821Z,18.40
2017-05-22T01:25:33.477Z,18.16
2017-05-22T01:25:55.560Z,18.15
2017-05-22T01:26:17.507Z,18.14
2017-05-22T01:26:42.319Z,18.23
2017-05-22T01:27:04.038Z,18.23
2017-05-22T01:27:30.689Z,18.22
2017-05-22T01:27:53.195Z,18.19
2017-05-22T01:28:19.971Z,18.20
2017-05-22T01:28:42.000Z,18.20
2017-05-22T01:29:05.794Z,18.21
2017-05-22T01:29:27.744Z,18.22
2017-05-22T01:29:54.292Z,18.22
2017-05-22T01:30:42.785Z,18.21
2017-05-22T01:31:04.612Z,18.21
2017-05-22T01:31:29.048Z,18.23
2017-05-22T01:31:50.829Z,18.22
2017-05-22T01:32:20.201Z,18.20
2017-05-22T01:32:42.343Z,18.20
2017-05-22T01:33:33.773Z,18.21
2017-05-22T01:33:55.719Z,18.17
2017-05-22T01:34:17.548Z,18.17
2017-05-22T01:34:44.395Z,18.16
2017-05-22T01:35:06.663Z,18.13
2017-05-22T01:35:55.139Z,18.05
2017-05-22T01:36:57.627Z,18.14
2017-05-22T01:37:19.346Z,18.16
2017-05-22T01:37:46.018Z,18.18
2017-05-22T01:38:39.327Z,18.18
2017-05-22T01:39:04.630Z,18.16
2017-05-22T01:39:26.485Z,18.19
2017-05-22T01:39:51.156Z,18.23
2017-05-22T01:40:12.886Z,18.14
2017-05-22T01:40:37.361Z,18.17
2017-05-22T01:41:05.170Z,18.18
2017-05-22T01:41:32.557Z,18.20
2017-05-22T01:41:59.881Z,18.21
2017-05-22T01:42:26.700Z,18.16
2017-05-22T01:42:53.362Z,18.16
2017-05-22T01:43:49.020Z,18.12
2017-05-22T01:44:15.674Z,18.14
2017-05-22T01:44:40.991Z,18.18
2017-05-22T01:45:17.074Z,18.10
2017-05-22T01:45:39.845Z,18.07
2017-05-22T01:46:11.235Z,18.08
2017-05-22T01:46:33.092Z,18.11
2017-05-22T01:47:52.873Z,18.16
2017-05-22T01:48:20.503Z,18.13
2017-05-22T01:49:43.509Z,18.12
2017-05-22T01:50:05.971Z,18.07
2017-05-22T01:50:30.277Z,18.11
2017-05-22T01:50:52.103Z,18.13
2017-05-22T01:51:14.052Z,18.09
2017-05-22T01:51:42.267Z,18.12
2017-05-22T01:52:09.653Z,18.08
2017-05-22T01:52:34.572Z,18.02
2017-05-22T01:52:59.518Z,18.03
2017-05-22T01:53:21.471Z,18.05
2017-05-22T01:53:50.629Z,18.03
2017-05-22T01:54:13.776Z,18.09
2017-05-22T01:54:41.773Z,18.11
2017-05-22T01:55:07.205Z,18.11
2017-05-22T01:55:38.617Z,18.07
2017-05-22T01:56:06.081Z,18.02
2017-05-22T01:56:31.125Z,18.02
2017-05-22T01:56:55.901Z,18.02
2017-05-22T01:57:18.776Z,18.05
2017-05-22T01:57:41.188Z,17.99
2017-05-22T01:58:42.705Z,17.99
2017-05-22T01:59:06.107Z,17.99
2017-05-22T01:59:34.202Z,17.97
2017-05-22T02:00:03.655Z,17.99
2017-05-22T02:00:38.233Z,18.04
2017-05-22T02:01:04.790Z,18.05
2017-05-22T02:01:26.645Z,18.03
2017-05-22T02:01:53.167Z,18.00
2017-05-22T02:02:19.990Z,18.02
2017-05-22T02:02:49.560Z,18.07
2017-05-22T02:03:14.259Z,18.09
2017-05-22T02:03:36.156Z,18.08
2017-05-22T02:05:19.506Z,17.99
2017-05-22T02:05:42.858Z,18.02
2017-05-22T02:06:08.948Z,18.02
2017-05-22T02:06:33.513Z,18.11
2017-05-22T02:07:07.755Z,18.14
2017-05-22T02:08:03.710Z,17.96
2017-05-22T02:08:25.515Z,18.03
2017-05-22T02:08:52.128Z,18.07
2017-05-22T02:09:46.172Z,18.08
2017-05-22T02:10:13.506Z,17.93
2017-05-22T02:10:40.039Z,17.91
2017-05-22T02:11:37.648Z,17.93
2017-05-22T02:11:59.448Z,17.90
2017-05-22T02:12:23.930Z,17.94
2017-05-22T02:12:45.890Z,17.99
2017-05-22T02:13:12.469Z,17.99
2017-05-22T02:13:34.659Z,18.00
2017-05-22T02:14:06.728Z,18.02
2017-05-22T02:14:55.311Z,18.04
2017-05-22T02:15:17.387Z,18.03
2017-05-22T02:15:42.189Z,18.04
2017-05-22T02:16:04.032Z,17.98
2017-05-22T02:16:33.849Z,18.00
2017-05-22T02:17:46.585Z,18.03
2017-05-22T02:18:13.934Z,18.05
2017-05-22T02:18:43.142Z,18.09
2017-05-22T02:19:07.765Z,18.07
2017-05-22T02:19:34.467Z,18.03
2017-05-22T02:20:10.400Z,18.09
2017-05-22T02:20:40.058Z,18.09
2017-05-22T02:21:12.408Z,18.06
2017-05-22T02:21:34.259Z,18.03
2017-05-22T02:22:05.531Z,17.99
2017-05-22T02:22:27.414Z,18.02
2017-05-22T02:22:56.858Z,18.04
2017-05-22T02:23:18.744Z,18.04
2017-05-22T02:23:43.787Z,18.03
2017-05-22T02:24:13.197Z,18.07
2017-05-22T02:24:34.952Z,18.12
2017-05-22T02:25:06.680Z,18.09
2017-05-22T02:27:03.260Z,17.97
2017-05-22T02:27:27.803Z,17.94
2017-05-22T02:27:49.621Z,17.91
2017-05-22T02:28:12.649Z,17.89
2017-05-22T02:28:46.894Z,17.90
2017-05-22T02:29:09.412Z,17.94
2017-05-22T02:30:19.564Z,18.00
2017-05-22T02:30:41.338Z,17.90
2017-05-22T02:31:05.853Z,17.94
2017-05-22T02:31:31.022Z,17.88
2017-05-22T02:32:24.072Z,17.94
2017-05-22T02:32:50.598Z,17.92
2017-05-22T02:33:12.511Z,17.86
2017-05-22T02:33:40.822Z,17.85
2017-05-22T02:34:36.857Z,17.88
2017-05-22T02:34:59.215Z,17.82
2017-05-22T02:35:20.923Z,17.84
2017-05-22T02:36:14.116Z,17.90
2017-05-22T02:36:36.671Z,17.89
2017-05-22T02:37:03.203Z,17.93
2017-05-22T02:37:35.655Z,17.89
2017-05-22T02:38:31.945Z,17.91
2017-05-22T02:40:24.238Z,18.00
2017-05-22T02:40:45.964Z,17.91
2017-05-22T02:41:15.283Z,17.88
2017-05-22T02:42:04.100Z,17.84
2017-05-22T02:42:34.178Z,17.90
2017-05-22T02:42:56.229Z,17.88
2017-05-22T02:43:20.792Z,17.82
2017-05-22T02:43:42.492Z,17.85
2017-05-22T02:44:11.516Z,17.90
2017-05-22T02:44:38.187Z,17.87
2017-05-22T02:45:26.590Z,17.88
2017-05-22T02:45:53.174Z,17.88
2017-05-22T02:47:19.826Z,17.89
2017-05-22T02:47:46.576Z,17.82
2017-05-22T02:48:17.914Z,17.84
2017-05-22T02:49:18.725Z,17.85
2017-05-22T02:50:11.803Z,17.64
2017-05-22T02:50:38.894Z,17.67
2017-05-22T02:51:30.583Z,17.73
2017-05-22T02:52:31.829Z,17.81
2017-05-22T02:53:03.178Z,17.82
2017-05-22T02:53:33.174Z,17.79
2017-05-22T02:53:54.983Z,17.81
2017-05-22T02:54:22.766Z,17.87
2017-05-22T02:55:20.818Z,17.91
2017-05-22T02:56:19.857Z,17.88
2017-05-22T02:57:23.677Z,17.82
2017-05-22T02:57:50.521Z,17.83
2017-05-22T02:58:17.304Z,17.77
2017-05-22T02:59:20.137Z,17.63
2017-05-22T02:59:47.249Z,17.56
2017-05-22T03:00:41.122Z,17.70
2017-05-22T03:01:09.996Z,17.71
2017-05-22T03:01:34.411Z,17.67
2017-05-22T03:01:59.373Z,17.71
2017-05-22T03:04:12.333Z,17.79
2017-05-22T03:05:29.026Z,17.71
2017-05-22T03:05:51.783Z,17.72
2017-05-22T03:06:19.321Z,17.67
2017-05-22T03:06:59.240Z,17.73
2017-05-22T03:07:28.577Z,17.65
2017-05-22T03:07:50.952Z,17.53
2017-05-22T03:08:20.645Z,17.55
2017-05-22T03:08:42.471Z,17.58
2017-05-22T03:09:13.735Z,17.57
2017-05-22T03:10:07.784Z,17.58
2017-05-22T03:10:29.482Z,17.62
2017-05-22T03:10:53.943Z,17.67
2017-05-22T03:11:18.868Z,17.63
2017-05-22T03:11:40.826Z,17.61
2017-05-22T03:12:34.317Z,17.55
2017-05-22T03:12:59.400Z,17.54
2017-05-22T03:15:42.875Z,17.44
2017-05-22T03:16:07.878Z,17.49
2017-05-22T03:16:37.161Z,17.38
2017-05-22T03:17:49.494Z,17.49
2017-05-22T03:18:42.531Z,17.50
2017-05-22T03:19:09.179Z,17.47
2017-05-22T03:20:18.335Z,17.52
2017-05-22T03:20:41.320Z,17.57
2017-05-22T03:21:05.068Z,17.60
2017-05-22T03:22:07.420Z,17.55
2017-05-22T03:22:34.216Z,17.58
2017-05-22T03:22:56.109Z,17.61
2017-05-22T03:23:25.381Z,17.60
2017-05-22T03:23:47.487Z,17.58
2017-05-22T03:24:18.840Z,17.43
2017-05-22T03:24:45.323Z,17.38
2017-05-22T03:25:12.198Z,17.44
2017-05-22T03:25:41.314Z,17.43
2017-05-22T03:26:08.973Z,17.47
2017-05-22T03:26:34.698Z,17.55
2017-05-22T03:26:59.103Z,17.47
2017-05-22T03:27:28.517Z,17.46
2017-05-22T03:27:57.832Z,17.40
2017-05-22T03:29:34.679Z,17.53
2017-05-22T03:30:01.525Z,17.57
2017-05-22T03:30:28.022Z,17.57
2017-05-22T03:31:00.422Z,17.56
2017-05-22T03:33:01.785Z,17.63
2017-05-22T03:33:28.472Z,17.71
2017-05-22T03:33:55.271Z,17.66
2017-05-22T03:34:54.091Z,17.65
2017-05-22T03:35:20.776Z,17.63
2017-05-22T03:36:16.478Z,17.63
2017-05-22T03:36:51.056Z,17.57
2017-05-22T03:37:25.028Z,17.65
2017-05-22T03:37:49.387Z,17.58
2017-05-22T03:38:24.797Z,17.44
2017-05-22T03:39:21.989Z,17.49
2017-05-22T03:40:53.584Z,17.58
2017-05-22T03:41:19.891Z,17.61
2017-05-22T03:41:53.935Z,17.60
2017-05-22T03:42:18.451Z,17.57
2017-05-22T03:43:12.995Z,17.50
2017-05-22T03:44:53.632Z,17.49
2017-05-22T03:46:30.827Z,17.40
2017-05-22T03:46:57.413Z,17.42
2017-05-22T03:47:28.730Z,17.49
2017-05-22T03:47:50.425Z,17.55
2017-05-22T03:48:20.042Z,17.57
2017-05-22T03:48:53.221Z,17.51
2017-05-22T03:49:58.975Z,17.48
2017-05-22T03:50:29.033Z,17.53
2017-05-22T03:50:50.745Z,17.52
2017-05-22T03:51:12.456Z,17.50
2017-05-22T03:52:00.708Z,17.53
2017-05-22T03:52:25.024Z,17.48
2017-05-22T03:53:25.621Z,17.57
2017-05-22T03:54:34.140Z,17.62
2017-05-22T03:55:32.340Z,17.61
2017-05-22T03:55:55.060Z,17.60
2017-05-22T03:56:21.549Z,17.51
2017-05-22T03:56:48.029Z,17.53
2017-05-22T03:57:14.550Z,17.49
2017-05-22T03:58:03.628Z,17.53
2017-05-22T03:59:04.323Z,17.36
2017-05-22T03:59:35.587Z,17.39
2017-05-22T04:00:39.560Z,17.48
2017-05-22T04:02:23.300Z,17.49
2017-05-22T04:02:52.778Z,17.50
2017-05-22T04:03:46.767Z,17.50
2017-05-22T04:04:08.539Z,17.49
2017-05-22T04:04:36.115Z,17.54
2017-05-22T04:04:58.016Z,17.55
2017-05-22T04:05:27.407Z,17.57
2017-05-22T04:05:56.789Z,17.59
2017-05-22T04:06:18.503Z,17.50
2017-05-22T04:06:40.230Z,17.51
2017-05-22T04:07:09.310Z,17.48
2017-05-22T04:07:35.793Z,17.39
2017-05-22T04:07:57.526Z,17.35
2017-05-22T04:08:22.187Z,17.33
2017-05-22T04:08:51.762Z,17.39
2017-05-22T04:09:19.546Z,17.50
2017-05-22T04:09:51.996Z,17.57
2017-05-22T04:11:22.069Z,17.53
2017-05-22T04:13:26.649Z,17.55
2017-05-22T04:13:56.913Z,17.55
2017-05-22T04:14:57.428Z,17.48
2017-05-22T04:16:24.918Z,17.57
2017-05-22T04:16:57.184Z,17.59
2017-05-22T04:17:28.826Z,17.61
2017-05-22T04:18:05.690Z,17.61
2017-05-22T04:18:35.822Z,17.63
2017-05-22T04:19:30.936Z,17.58
2017-05-22T04:19:55.984Z,17.66
2017-05-22T04:20:22.612Z,17.70
2017-05-22T04:21:24.410Z,17.64
2017-05-22T04:21:51.444Z,17.59
2017-05-22T04:22:16.036Z,17.60
2017-05-22T04:22:37.755Z,17.56
2017-05-22T04:24:17.113Z,17.65
2017-05-22T04:25:29.089Z,17.68
2017-05-22T04:25:56.290Z,17.71
2017-05-22T04:26:57.167Z,17.68
2017-05-22T04:27:23.646Z,17.71
2017-05-22T04:27:45.747Z,17.76
2017-05-22T04:28:15.274Z,17.69
2017-05-22T04:28:42.962Z,17.71
2017-05-22T04:29:12.887Z,17.69
2017-05-22T04:30:13.555Z,17.60
2017-05-22T04:31:02.933Z,17.70
2017-05-22T04:31:30.471Z,17.64
2017-05-22T04:33:57.727Z,17.53
2017-05-22T04:34:26.837Z,17.55
2017-05-22T04:34:48.621Z,17.51
2017-05-22T04:38:17.349Z,17.55
2017-05-22T04:38:40.701Z,17.52
2017-05-22T04:39:12.068Z,17.59
2017-05-22T04:40:07.926Z,17.63
2017-05-22T04:41:45.770Z,17.61
2017-05-22T04:42:12.256Z,17.63
2017-05-22T04:43:08.222Z,17.54
2017-05-22T04:43:37.231Z,17.51
2017-05-22T04:43:58.997Z,17.50
2017-05-22T04:44:52.637Z,17.43
2017-05-22T04:47:05.492Z,17.58
2017-05-22T04:47:31.986Z,17.57
2017-05-22T04:47:53.768Z,17.63
2017-05-22T04:48:18.633Z,17.70
2017-05-22T04:48:52.545Z,17.68
2017-05-22T04:49:59.991Z,17.69
2017-05-22T04:50:22.006Z,17.69
2017-05-22T04:51:00.671Z,17.75
2017-05-22T04:52:00.205Z,17.79
2017-05-22T04:52:22.238Z,17.80
2017-05-22T04:52:44.344Z,17.83
2017-05-22T04:53:15.843Z,17.87
2017-05-22T04:54:05.355Z,17.90
2017-05-22T04:54:36.779Z,17.88
2017-05-22T04:55:25.433Z,17.88
2017-05-22T04:55:47.387Z,17.81
2017-05-22T04:58:02.742Z,17.83
2017-05-22T04:58:29.369Z,17.82
2017-05-22T04:58:51.236Z,17.78
2017-05-22T04:59:17.854Z,17.80
2017-05-22T04:59:40.187Z,17.85
2017-05-22T05:00:37.965Z,17.82
2017-05-22T05:00:59.948Z,17.87
2017-05-22T05:01:21.843Z,17.90
2017-05-22T05:01:46.880Z,17.88
2017-05-22T05:02:13.949Z,17.89
2017-05-22T05:02:46.161Z,17.90
2017-05-22T05:03:56.590Z,17.96
2017-05-22T05:05:25.217Z,17.92
2017-05-22T05:06:19.932Z,17.90
2017-05-22T05:06:46.555Z,17.94
2017-05-22T05:07:18.488Z,17.97
2017-05-22T05:08:27.401Z,17.93
2017-05-22T05:09:26.341Z,17.88
2017-05-22T05:09:48.352Z,17.88
2017-05-22T05:11:01.006Z,17.92
2017-05-22T05:11:27.852Z,17.97
2017-05-22T05:11:54.590Z,17.97
2017-05-22T05:12:21.295Z,17.99
2017-05-22T05:12:43.286Z,18.01
2017-05-22T05:13:51.685Z,18.04
2017-05-22T05:14:55.227Z,17.98
2017-05-22T05:15:55.504Z,18.02
2017-05-22T05:16:45.292Z,18.07
2017-05-22T05:19:50.321Z,18.11
2017-05-22T05:20:29.563Z,18.08
2017-05-22T05:21:05.597Z,18.14
2017-05-22T05:22:00.394Z,18.11
2017-05-22T05:22:22.715Z,18.10
2017-05-22T05:22:52.522Z,18.09
2017-05-22T05:23:19.892Z,18.10
2017-05-22T05:23:46.513Z,18.08
2017-05-22T05:24:13.254Z,18.04
2017-05-22T05:25:04.307Z,18.04
2017-05-22T05:25:26.123Z,18.08
2017-05-22T05:25:48.013Z,18.10
2017-05-22T05:26:19.379Z,18.15
2017-05-22T05:26:43.262Z,18.15
2017-05-22T05:27:09.933Z,18.17
2017-05-22T05:27:41.214Z,18.20
2017-05-22T05:28:12.591Z,18.14
2017-05-22T05:28:39.217Z,18.16
2017-05-22T05:29:01.172Z,18.15
2017-05-22T05:29:27.682Z,18.12
2017-05-22T05:30:20.834Z,18.12
2017-05-22T05:31:14.050Z,18.13
2017-05-22T05:31:36.866Z,18.12
2017-05-22T05:32:08.206Z,18.13
2017-05-22T05:32:34.779Z,18.09
2017-05-22T05:33:37.218Z,18.08
2017-05-22T05:34:04.137Z,18.18
2017-05-22T05:35:09.122Z,18.21
2017-05-22T05:35:38.325Z,18.20
2017-05-22T05:36:10.715Z,18.15
2017-05-22T05:36:32.700Z,18.10
2017-05-22T05:36:57.607Z,18.10
2017-05-22T05:37:29.009Z,18.06
2017-05-22T05:37:56.559Z,18.06
2017-05-22T05:38:23.187Z,18.07
2017-05-22T05:38:45.383Z,18.06
2017-05-22T05:39:12.045Z,18.07
2017-05-22T05:39:34.044Z,18.02
2017-05-22T05:39:56.203Z,18.03
2017-05-22T05:40:21.023Z,18.06
2017-05-22T05:41:54.397Z,18.05
2017-05-22T05:42:28.798Z,18.04
2017-05-22T05:43:29.771Z,18.07
2017-05-22T05:43:56.274Z,18.08
2017-05-22T05:46:42.629Z,17.99
2017-05-22T05:47:05.579Z,18.02
2017-05-22T05:47:27.579Z,18.07
2017-05-22T05:47:50.548Z,18.15
2017-05-22T05:50:56.222Z,18.12
2017-05-22T05:52:46.985Z,18.17
2017-05-22T05:55:13.777Z,18.19
2017-05-22T05:58:21.831Z,18.24
2017-05-22T05:59:10.629Z,18.29
2017-05-22T05:59:32.639Z,18.37
2017-05-22T06:00:04.076Z,18.36
2017-05-22T06:07:47.912Z,18.58
2017-05-22T06:09:25.687Z,18.54
2017-05-22T06:09:56.668Z,18.55
2017-05-22T06:10:25.397Z,18.52
2017-05-22T06:10:53.109Z,18.53
2017-05-22T06:11:16.114Z,18.54
2017-05-22T06:11:50.522Z,18.53
2017-05-22T06:12:21.960Z,18.55
2017-05-22T06:12:49.724Z,18.56
2017-05-22T06:13:53.398Z,18.53
2017-05-22T06:14:15.245Z,18.53
2017-05-22T06:14:37.057Z,18.53
2017-05-22T06:14:58.857Z,18.49
2017-05-22T06:23:35.600Z,18.29
2017-05-22T06:24:00.237Z,18.34
2017-05-22T06:24:24.804Z,18.33
2017-05-22T06:24:51.288Z,18.32
2017-05-22T06:26:25.086Z,18.40
2017-05-22T06:26:46.843Z,18.44
2017-05-22T06:27:45.010Z,18.35
2017-05-22T06:29:12.637Z,18.41
2017-05-22T06:29:34.359Z,18.45
2017-05-22T06:30:07.718Z,18.42
2017-05-22T06:30:29.872Z,18.38
2017-05-22T06:31:01.644Z,18.41
2017-05-22T06:31:32.729Z,18.40
2017-05-22T06:31:57.305Z,18.44
2017-05-22T06:32:28.434Z,18.46
2017-05-22T06:32:54.765Z,18.54
2017-05-22T06:33:21.072Z,18.56
2017-05-22T06:33:50.295Z,18.54
2017-05-22T06:34:19.386Z,18.60
2017-05-22T06:34:45.898Z,18.63
2017-05-22T06:35:12.747Z,18.63
2017-05-22T06:36:01.226Z,18.68
2017-05-22T06:36:49.431Z,18.55
2017-05-22T06:37:15.965Z,18.56
2017-05-22T06:37:37.710Z,18.57
2017-05-22T06:37:59.418Z,18.62
2017-05-22T06:38:35.523Z,18.69
2017-05-22T06:39:02.570Z,18.70
2017-05-22T06:39:27.138Z,18.69
2017-05-22T06:40:00.447Z,18.67
2017-05-22T06:40:25.235Z,18.69
2017-05-22T06:40:47.991Z,18.72
2017-05-22T06:41:19.303Z,18.74
2017-05-22T06:42:16.479Z,18.75
2017-05-22T06:44:28.008Z,18.75
2017-05-22T06:45:04.795Z,18.74
2017-05-22T06:45:36.139Z,18.74
2017-05-22T06:45:59.069Z,18.74
2017-05-22T06:46:25.666Z,18.74
2017-05-22T06:46:58.057Z,18.74
2017-05-22T06:48:51.470Z,18.79
2017-05-22T06:49:18.157Z,18.82
2017-05-22T06:49:45.799Z,18.79
2017-05-22T06:50:07.735Z,18.79
2017-05-22T06:50:35.378Z,18.81
2017-05-22T06:51:51.018Z,18.84
2017-05-22T06:53:08.028Z,18.89
2017-05-22T06:54:49.029Z,18.88
2017-05-22T06:55:28.073Z,18.87
2017-05-22T07:00:09.461Z,18.99
2017-05-22T07:01:44.300Z,18.98
2017-05-22T07:02:08.717Z,19.02
2017-05-22T07:02:32.875Z,19.03
2017-05-22T07:02:59.359Z,19.05
2017-05-22T07:03:23.149Z,19.06
2017-05-22T07:04:39.377Z,19.09
2017-05-22T07:05:03.978Z,19.08
2017-05-22T07:05:25.813Z,19.05
2017-05-22T07:05:59.733Z,19.05
2017-05-22T07:06:22.513Z,19.05
2017-05-22T07:06:44.319Z,19.02
2017-05-22T07:07:11.536Z,19.05
2017-05-22T07:07:33.285Z,19.03
2017-05-22T07:08:50.098Z,18.93
2017-05-22T07:10:34.051Z,19.08
2017-05-22T07:10:55.782Z,19.07
2017-05-22T07:11:20.401Z,19.04
2017-05-22T07:11:42.147Z,18.96
2017-05-22T07:12:19.310Z,18.97
2017-05-22T07:12:48.767Z,18.99
2017-05-22T07:13:10.566Z,18.95
2017-05-22T07:13:35.272Z,18.94
2017-05-22T07:14:04.906Z,18.99
2017-05-22T07:15:36.282Z,18.89
2017-05-22T07:16:41.019Z,18.90
2017-05-22T07:17:36.808Z,18.91
2017-05-22T07:18:02.717Z,18.89
2017-05-22T07:18:35.391Z,18.91
2017-05-22T07:19:01.325Z,18.94
2017-05-22T07:19:40.361Z,18.97
2017-05-22T07:20:18.863Z,18.89
2017-05-22T07:20:50.128Z,18.88
2017-05-22T07:21:15.349Z,18.89
2017-05-22T07:21:40.374Z,18.88
2017-05-22T07:22:09.649Z,18.89
2017-05-22T07:22:44.499Z,18.97
2017-05-22T07:23:06.204Z,18.99
2017-05-22T07:23:27.946Z,18.98
2017-05-22T07:23:49.705Z,19.00
2017-05-22T07:24:11.434Z,18.97
2017-05-22T07:24:42.690Z,18.92
2017-05-22T07:25:04.479Z,18.96
2017-05-22T07:25:40.530Z,19.00
2017-05-22T07:26:02.799Z,18.99
2017-05-22T07:26:24.589Z,19.02
2017-05-22T07:26:51.096Z,19.02
2017-05-22T07:27:12.794Z,18.99
2017-05-22T07:27:34.591Z,19.00
2017-05-22T07:28:01.078Z,18.92
2017-05-22T07:28:22.800Z,18.90
2017-05-22T07:28:44.592Z,18.90
2017-05-22T07:29:11.063Z,18.92
2017-05-22T07:29:32.810Z,18.89
2017-05-22T07:29:59.347Z,18.90
2017-05-22T07:30:21.040Z,18.95
2017-05-22T07:30:42.746Z,18.91
2017-05-22T07:31:14.016Z,18.89
2017-05-22T07:31:35.718Z,18.87
2017-05-22T07:33:39.388Z,18.89
2017-05-22T07:34:38.099Z,18.80
2017-05-22T07:35:07.411Z,18.81
2017-05-22T07:35:56.210Z,18.88
2017-05-22T07:36:27.272Z,18.82
2017-05-22T07:36:53.198Z,18.85
2017-05-22T07:37:22.578Z,18.88
2017-05-22T07:39:02.756Z,18.98
2017-05-22T07:39:29.220Z,18.92
2017-05-22T07:39:51.135Z,18.90
2017-05-22T07:40:17.692Z,18.92
2017-05-22T07:40:39.689Z,18.92
2017-05-22T07:41:40.030Z,18.91
2017-05-22T07:42:07.537Z,18.94
2017-05-22T07:43:00.579Z,18.86
2017-05-22T07:43:25.201Z,18.81
2017-05-22T07:44:18.944Z,18.83
2017-05-22T07:44:48.657Z,18.84
2017-05-22T07:45:20.268Z,18.86
2017-05-22T07:46:13.463Z,18.94
2017-05-22T07:46:39.846Z,18.96
2017-05-22T07:48:12.795Z,18.94
2017-05-22T07:48:39.769Z,18.92
2017-05-22T07:49:10.313Z,18.92
2017-05-22T07:49:42.941Z,18.91
2017-05-22T07:50:10.584Z,18.91
2017-05-22T07:50:32.614Z,18.91
2017-05-22T07:52:44.411Z,18.97
2017-05-22T07:53:11.385Z,18.96
2017-05-22T07:53:33.343Z,18.96
2017-05-22T07:53:58.160Z,18.99
2017-05-22T07:55:59.324Z,19.01
2017-05-22T07:56:35.379Z,19.01
2017-05-22T07:56:57.665Z,19.00
2017-05-22T07:57:19.438Z,18.98
2017-05-22T07:57:46.947Z,18.98
2017-05-22T07:58:42.614Z,19.02
2017-05-22T07:59:16.635Z,18.99
2017-05-22T07:59:48.168Z,19.00
2017-05-22T08:00:49.613Z,18.97
2017-05-22T08:02:14.338Z,18.95
2017-05-22T08:02:36.612Z,18.97
2017-05-22T08:03:47.431Z,19.07
2017-05-22T08:04:21.838Z,19.01
2017-05-22T08:05:36.747Z,19.04
2017-05-22T08:05:58.597Z,19.06
2017-05-22T08:06:27.847Z,19.07
2017-05-22T08:06:55.437Z,19.08
2017-05-22T08:07:17.188Z,19.08
2017-05-22T08:08:17.791Z,19.08
2017-05-22T08:08:42.447Z,19.11
2017-05-22T08:09:16.398Z,19.12
2017-05-22T08:10:24.580Z,19.20
2017-05-22T08:10:51.167Z,19.21
2017-05-22T08:12:18.260Z,19.23
2017-05-22T08:13:11.644Z,19.19
2017-05-22T08:15:55.358Z,19.27
2017-05-22T08:16:22.220Z,19.29
2017-05-22T08:16:53.341Z,19.29
2017-05-22T08:18:39.407Z,19.34
2017-05-22T08:19:08.788Z,19.34
2017-05-22T08:19:38.115Z,19.36
2017-05-22T08:20:26.425Z,19.27
2017-05-22T08:21:24.184Z,19.36
2017-05-22T08:22:57.599Z,19.48
2017-05-22T08:23:19.317Z,19.48
2017-05-22T08:24:21.828Z,19.48
2017-05-22T08:24:43.547Z,19.48
2017-05-22T08:25:05.434Z,19.53
2017-05-22T08:25:27.455Z,19.53
2017-05-22T08:25:49.281Z,19.52
2017-05-22T08:26:20.568Z,19.53
2017-05-22T08:26:42.614Z,19.54
2017-05-22T08:27:09.113Z,19.57
2017-05-22T08:27:30.847Z,19.61
2017-05-22T08:28:02.138Z,19.63
2017-05-22T08:28:23.994Z,19.56
2017-05-22T08:29:22.565Z,19.56
2017-05-22T08:29:44.399Z,19.52
2017-05-22T08:30:15.673Z,19.52
2017-05-22T08:30:37.376Z,19.50
2017-05-22T08:31:03.908Z,19.47
2017-05-22T08:32:11.195Z,19.61
2017-05-22T08:32:33.069Z,19.62
2017-05-22T08:32:54.797Z,19.57
2017-05-22T08:33:21.260Z,19.54
2017-05-22T08:33:42.991Z,19.53
2017-05-22T08:34:09.672Z,19.54
2017-05-22T08:34:31.378Z,19.59
2017-05-22T08:34:53.086Z,19.64
2017-05-22T08:35:24.427Z,19.67
2017-05-22T08:35:46.176Z,19.61
2017-05-22T08:36:07.910Z,19.57
2017-05-22T08:36:34.405Z,19.59
2017-05-22T08:36:56.131Z,19.57
2017-05-22T08:37:22.619Z,19.64
2017-05-22T08:37:44.573Z,19.64
2017-05-22T08:38:47.258Z,19.66
2017-05-22T08:39:08.989Z,19.68
2017-05-22T08:39:30.711Z,19.68
2017-05-22T08:39:57.245Z,19.70